Time;durP1;ratioP1;P1;durP2;ratioP2;P2;SDS_P1;SDS_P2;PMS_P1;PMS_P2;Temp;Humidity;BMP_temperature;BMP_pressure;BME280_temperature;BME280_humidity;BME280_pressure;Samples;Min_cycle;Max_cycle;Signal;HPM_P1;HPM_P2
2023/12/20 00:01:57;;;;;;;;;;;;;;;;;;6233143;28;20401;-85
2023/12/20 00:04:57;;;;;;;;;;;;;;;;;;6210657;28;19924;-85
2023/12/20 00:07:57;;;;;;;;;;;;;;;;;;6229755;28;19929;-85
2023/12/20 00:10:57;;;;;;;;;;;;;;;;;;6229225;28;19917;-85
2023/12/20 00:13:57;;;;;;;;;;;;;;;;;;6226048;28;19933;-85
2023/12/20 00:16:57;;;;;;;;;;;;;;;;;;6211665;28;19921;-86
2023/12/20 00:19:58;;;;;;;;;;;;;;;;;;6229257;28;20403;-85
2023/12/20 00:22:58;;;;;;;;;;;;;;;;;;6225022;28;20259;-85
2023/12/20 00:25:58;;;;;;;;;;;;;;;;;;6213245;28;20007;-84
2023/12/20 00:28:58;;;;;;;;;;;;;;;;;;6226659;28;20430;-87
2023/12/20 00:31:58;;;;;;;;;;;;;;;;;;6225516;28;19924;-84
2023/12/20 00:34:58;;;;;;;;;;;;;;;;;;6212084;28;19921;-85
2023/12/20 00:37:59;;;;;;;;;;;;;;;;;;6227403;28;19917;-84
2023/12/20 00:40:59;;;;;;;;;;;;;;;;;;6231123;28;20304;-85
2023/12/20 00:43:59;;;;;;;;;;;;;;;;;;6229310;28;20035;-84
2023/12/20 00:46:59;;;;;;;;;;;;;;;;;;6225954;28;19937;-85
2023/12/20 00:49:59;;;;;;;;;;;;;;;;;;6227885;28;20387;-85
2023/12/20 00:52:59;;;;;;;;;;;;;;;;;;6215082;28;19921;-85
2023/12/20 00:56:00;;;;;;;;;;;;;;;;;;6208954;28;20365;-85
2023/12/20 00:59:00;;;;;;;;;;;;;;;;;;6229453;28;19932;-85
2023/12/20 01:02:00;;;;;;;;;;;;;;;;;;6217453;28;19973;-85
2023/12/20 01:05:00;;;;;;;;;;;;;;;;;;6226933;28;20397;-85
2023/12/20 01:08:02;;;;;;;;;;;;;;;;;;6226363;28;19920;-85
2023/12/20 01:11:03;;;;;;;;;;;;;;;;;;6224807;28;19917;-86
2023/12/20 01:14:03;;;;;;;;;;;;;;;;;;6229865;28;19918;-85
2023/12/20 01:17:03;;;;;;;;;;;;;;;;;;6229088;28;19921;-85
2023/12/20 01:20:03;;;;;;;;;;;;;;;;;;6210701;28;19922;-86
2023/12/20 01:23:03;;;;;;;;;;;;;;;;;;6228179;28;19917;-85
2023/12/20 01:26:05;;;;;;;;;;;;;;;;;;6216006;28;19924;-85
2023/12/20 01:29:05;;;;;;;;;;;;;;;;;;6218392;28;19913;-86
2023/12/20 01:32:05;;;;;;;;;;;;;;;;;;6231707;28;19921;-86
2023/12/20 01:35:05;;;;;;;;;;;;;;;;;;6219124;28;19920;-86
2023/12/20 01:38:05;;;;;;;;;;;;;;;;;;6234652;28;19925;-84
2023/12/20 01:41:06;;;;;;;;;;;;;;;;;;6211166;28;19917;-85
2023/12/20 01:44:08;;;;;;;;;;;;;;;;;;5625593;28;10000041;-88
2023/12/20 01:47:08;;;;;;;;;;;;;;;;;;6217401;28;19920;-87
2023/12/20 01:50:08;;;;;;;;;;;;;;;;;;6234614;28;19960;-86
2023/12/20 01:53:09;;;;;;;;;;;;;;;;;;6232247;28;20003;-85
2023/12/20 01:56:09;;;;;;;;;;;;;;;;;;6215211;28;20358;-85
2023/12/20 01:59:09;;;;;;;;;;;;;;;;;;6217443;28;19960;-86
2023/12/20 02:02:12;;;;;;;;;;;;;;;;;;5872449;28;10000392;-86
2023/12/20 02:05:12;;;;;;;;;;;;;;;;;;6239450;28;19913;-84
2023/12/20 02:08:12;;;;;;;;;;;;;;;;;;6239883;28;19933;-85
2023/12/20 02:11:12;;;;;;;;;;;;;;;;;;6231498;28;20301;-85
2023/12/20 02:14:13;;;;;;;;;;;;;;;;;;6234759;28;20293;-84
2023/12/20 02:17:13;;;;;;;;;;;;;;;;;;6251740;28;19960;-85
2023/12/20 02:20:13;;;;;;;;;;;;;;;;;;6250790;28;20397;-83
2023/12/20 02:23:13;;;;;;;;;;;;;;;;;;6230420;28;20006;-84
2023/12/20 02:26:14;;;;;;;;;;;;;;;;;;6218951;28;19917;-84
2023/12/20 02:29:14;;;;;;;;;;;;;;;;;;6230468;28;20051;-85
2023/12/20 02:32:14;;;;;;;;;;;;;;;;;;6241007;28;19917;-85
2023/12/20 02:35:14;;;;;;;;;;;;;;;;;;6227669;28;19914;-85
2023/12/20 02:38:14;;;;;;;;;;;;;;;;;;6235197;28;20277;-84
2023/12/20 02:41:16;;;;;;;;;;;;;;;;;;6252715;28;19909;-84
2023/12/20 02:44:16;;;;;;;;;;;;;;;;;;6210368;28;19920;-84
2023/12/20 02:47:17;;;;;;;;;;;;;;;;;;6227802;28;19913;-84
2023/12/20 02:50:17;;;;;;;;;;;;;;;;;;6234718;28;19909;-85
2023/12/20 02:53:17;;;;;;;;;;;;;;;;;;6251794;28;19920;-84
2023/12/20 02:56:17;;;;;;;;;;;;;;;;;;6234165;28;20293;-84
2023/12/20 02:59:17;;;;;;;;;;;;;;;;;;6251328;28;20325;-84
2023/12/20 03:02:17;;;;;;;;;;;;;;;;;;6282287;28;19947;-84
2023/12/20 03:05:17;;;;;;;;;;;;;;;;;;6301139;28;19997;-84
2023/12/20 03:08:18;;;;;;;;;;;;;;;;;;6301016;28;19912;-84
2023/12/20 03:11:18;;;;;;;;;;;;;;;;;;6294072;28;19908;-84
2023/12/20 03:14:18;;;;;;;;;;;;;;;;;;6301298;28;19908;-84
2023/12/20 03:17:19;;;;;;;;;;;;;;;;;;6281431;28;19943;-84
2023/12/20 03:20:19;;;;;;;;;;;;;;;;;;6282840;28;20361;-84
2023/12/20 03:23:19;;;;;;;;;;;;;;;;;;6282797;28;19915;-84
2023/12/20 03:26:20;;;;;;;;;;;;;;;;;;6300705;28;19915;-84
2023/12/20 03:29:20;;;;;;;;;;;;;;;;;;6300335;28;19912;-84
2023/12/20 03:32:20;;;;;;;;;;;;;;;;;;6282107;28;19909;-83
2023/12/20 03:35:20;;;;;;;;;;;;;;;;;;6275727;28;19909;-84
2023/12/20 03:38:20;;;;;;;;;;;;;;;;;;6275805;28;19920;-83
2023/12/20 03:41:20;;;;;;;;;;;;;;;;;;6279802;28;19912;-83
2023/12/20 03:44:21;;;;;;;;;;;;;;;;;;6300197;28;19991;-84
2023/12/20 03:47:21;;;;;;;;;;;;;;;;;;5928152;28;10000040;-84
2023/12/20 03:50:21;;;;;;;;;;;;;;;;;;6260608;28;20368;-84
2023/12/20 03:53:21;;;;;;;;;;;;;;;;;;6299663;28;20408;-84
2023/12/20 03:56:21;;;;;;;;;;;;;;;;;;6298924;28;20306;-84
2023/12/20 03:59:22;;;;;;;;;;;;;;;;;;6299546;28;20298;-84
2023/12/20 04:02:22;;;;;;;;;;;;;;;;;;6294690;28;19924;-84
2023/12/20 04:05:22;;;;;;;;;;;;;;;;;;6275128;28;19920;-85
2023/12/20 04:08:22;;;;;;;;;;;;;;;;;;6281383;28;20380;-85
2023/12/20 04:11:22;;;;;;;;;;;;;;;;;;6299132;28;19916;-85
2023/12/20 04:14:22;;;;;;;;;;;;;;;;;;6281524;28;19908;-85
2023/12/20 04:17:23;;;;;;;;;;;;;;;;;;6278786;28;19917;-87
2023/12/20 04:20:23;;;;;;;;;;;;;;;;;;6267468;28;19912;-85
2023/12/20 04:23:23;;;;;;;;;;;;;;;;;;6299364;28;19921;-88
2023/12/20 04:26:23;;;;;;;;;;;;;;;;;;6300252;28;19916;-88
2023/12/20 04:29:23;;;;;;;;;;;;;;;;;;6280717;28;19959;-87
2023/12/20 04:32:23;;;;;;;;;;;;;;;;;;6258006;28;19920;-88
2023/12/20 04:35:24;;;;;;;;;;;;;;;;;;6275864;28;20330;-88
2023/12/20 04:38:24;;;;;;;;;;;;;;;;;;6274134;28;19923;-88
2023/12/20 04:41:24;;;;;;;;;;;;;;;;;;6276607;28;19991;-88
2023/12/20 04:44:24;;;;;;;;;;;;;;;;;;6299185;28;19952;-88
2023/12/20 04:47:24;;;;;;;;;;;;;;;;;;6260274;28;19916;-88
2023/12/20 04:50:24;;;;;;;;;;;;;;;;;;6278575;28;19913;-88
2023/12/20 04:53:25;;;;;;;;;;;;;;;;;;6291592;28;19913;-88
2023/12/20 04:56:25;;;;;;;;;;;;;;;;;;6300365;28;19913;-89
2023/12/20 04:59:25;;;;;;;;;;;;;;;;;;6294526;28;19913;-89
2023/12/20 05:02:25;;;;;;;;;;;;;;;;;;6261042;28;19971;-88
2023/12/20 05:05:25;;;;;;;;;;;;;;;;;;6251049;28;19909;-88
2023/12/20 05:08:25;;;;;;;;;;;;;;;;;;6249434;28;19915;-88
2023/12/20 05:11:26;;;;;;;;;;;;;;;;;;6261900;28;20008;-88
2023/12/20 05:14:26;;;;;;;;;;;;;;;;;;6275554;28;19951;-88
2023/12/20 05:17:28;;;;;;;;;;;;;;;;;;6257110;28;20201;-88
2023/12/20 05:20:28;;;;;;;;;;;;;;;;;;6275773;28;19913;-88
2023/12/20 05:23:29;;;;;;;;;;;;;;;;;;6274047;28;19916;-89
2023/12/20 05:26:30;;;;;;;;;;;;;;;;;;6275145;28;19917;-88
2023/12/20 05:29:30;;;;;;;;;;;;;;;;;;5922992;28;10000383;-88
2023/12/20 05:32:31;;;;;;;;;;;;;;;;;;5901514;28;9999637;-85
2023/12/20 05:35:31;;;;;;;;;;;;;;;;;;6264568;28;19917;-84
2023/12/20 05:38:31;;;;;;;;;;;;;;;;;;6272303;28;19956;-84
2023/12/20 05:41:31;;;;;;;;;;;;;;;;;;6261400;28;19928;-85
2023/12/20 05:44:31;;;;;;;;;;;;;;;;;;6256577;28;19913;-85
2023/12/20 05:47:31;;;;;;;;;;;;;;;;;;6248398;28;19920;-84
2023/12/20 05:50:32;;;;;;;;;;;;;;;;;;6259494;28;19939;-84
2023/12/20 05:53:32;;;;;;;;;;;;;;;;;;6272519;28;19912;-84
2023/12/20 05:56:32;;;;;;;;;;;;;;;;;;6274298;28;19979;-85
2023/12/20 05:59:32;;;;;;;;;;;;;;;;;;6269471;28;19936;-84
2023/12/20 06:02:32;;;;;;;;;;;;;;;;;;6261838;28;20015;-84
2023/12/20 06:05:32;;;;;;;;;;;;;;;;;;6253201;28;20037;-84
2023/12/20 06:08:33;;;;;;;;;;;;;;;;;;6273418;28;19912;-84
2023/12/20 06:11:33;;;;;;;;;;;;;;;;;;6271922;28;19999;-84
2023/12/20 06:14:33;;;;;;;;;;;;;;;;;;6269515;28;19952;-84
2023/12/20 06:17:34;;;;;;;;;;;;;;;;;;6246996;28;19971;-85
2023/12/20 06:20:35;;;;;;;;;;;;;;;;;;6262047;28;20427;-85
2023/12/20 06:23:35;;;;;;;;;;;;;;;;;;6251995;28;19913;-85
2023/12/20 06:26:35;;;;;;;;;;;;;;;;;;6274957;28;19916;-85
2023/12/20 06:29:35;;;;;;;;;;;;;;;;;;6270997;28;19913;-85
2023/12/20 06:32:35;;;;;;;;;;;;;;;;;;6252723;28;19916;-85
2023/12/20 06:35:35;;;;;;;;;;;;;;;;;;6270864;28;19913;-84
2023/12/20 06:38:36;;;;;;;;;;;;;;;;;;6276594;28;19909;-85
2023/12/20 06:41:36;;;;;;;;;;;;;;;;;;6275412;28;19913;-85
2023/12/20 06:44:36;;;;;;;;;;;;;;;;;;6275574;28;19998;-88
2023/12/20 06:47:36;;;;;;;;;;;;;;;;;;6253601;28;20370;-88
2023/12/20 06:50:39;;;;;;;;;;;;;;;;;;6275682;28;20325;-89
2023/12/20 06:53:39;;;;;;;;;;;;;;;;;;6277600;28;19959;-87
2023/12/20 06:56:41;;;;;;;;;;;;;;;;;;6267479;28;19925;-86
2023/12/20 06:59:41;;;;;;;;;;;;;;;;;;6277839;28;20350;-87
2023/12/20 07:02:41;;;;;;;;;;;;;;;;;;6271586;28;19932;-87
2023/12/20 07:05:41;;;;;;;;;;;;;;;;;;6271613;28;20006;-84
2023/12/20 07:08:41;;;;;;;;;;;;;;;;;;6254900;28;19976;-81
2023/12/20 07:11:41;;;;;;;;;;;;;;;;;;6267574;28;19917;-81
2023/12/20 07:14:42;;;;;;;;;;;;;;;;;;6272351;28;19913;-81
2023/12/20 07:17:43;;;;;;;;;;;;;;;;;;6257171;28;20019;-81
2023/12/20 07:20:43;;;;;;;;;;;;;;;;;;6250799;28;20347;-81
2023/12/20 07:23:43;;;;;;;;;;;;;;;;;;6249590;28;20464;-81
2023/12/20 07:26:43;;;;;;;;;;;;;;;;;;6257343;28;20395;-81
2023/12/20 07:29:44;;;;;;;;;;;;;;;;;;6270510;28;19912;-81
2023/12/20 07:32:44;;;;;;;;;;;;;;;;;;6249629;28;19909;-82
2023/12/20 07:35:45;;;;;;;;;;;;;;;;;;6250291;28;20020;-82
2023/12/20 07:38:45;;;;;;;;;;;;;;;;;;6253823;28;20050;-81
2023/12/20 07:41:45;;;;;;;;;;;;;;;;;;6270054;28;21731;-82
2023/12/20 07:44:45;;;;;;;;;;;;;;;;;;6265185;28;19986;-82
2023/12/20 07:47:45;;;;;;;;;;;;;;;;;;6274337;28;19912;-82
2023/12/20 07:50:45;;;;;;;;;;;;;;;;;;6257597;28;21356;-81
2023/12/20 07:53:46;;;;;;;;;;;;;;;;;;6253249;28;19975;-81
2023/12/20 07:56:46;;;;;;;;;;;;;;;;;;6253839;28;19964;-81
2023/12/20 07:59:46;;;;;;;;;;;;;;;;;;6247782;28;19952;-81
2023/12/20 08:02:46;;;;;;;;;;;;;;;;;;6252093;28;19999;-82
2023/12/20 08:05:46;;;;;;;;;;;;;;;;;;6250898;28;19913;-81
2023/12/20 08:08:46;;;;;;;;;;;;;;;;;;6253146;28;20024;-82
2023/12/20 08:11:46;;;;;;;;;;;;;;;;;;6249000;28;19920;-80
2023/12/20 08:14:47;;;;;;;;;;;;;;;;;;6250267;28;19956;-81
2023/12/20 08:17:47;;;;;;;;;;;;;;;;;;6255040;28;20045;-81
2023/12/20 08:20:48;;;;;;;;;;;;;;;;;;6250522;28;19913;-80
2023/12/20 08:23:49;;;;;;;;;;;;;;;;;;6253891;28;20071;-81
2023/12/20 08:26:49;;;;;;;;;;;;;;;;;;6249404;28;19913;-80
2023/12/20 08:29:50;;;;;;;;;;;;;;;;;;6252935;28;19962;-81
2023/12/20 08:32:51;;;;;;;;;;;;;;;;;;6247213;28;19919;-81
2023/12/20 08:35:51;;;;;;;;;;;;;;;;;;6247889;28;19929;-81
2023/12/20 08:38:51;;;;;;;;;;;;;;;;;;6250510;28;19975;-81
2023/12/20 08:41:51;;;;;;;;;;;;;;;;;;6251222;28;19917;-81
2023/12/20 08:44:51;;;;;;;;;;;;;;;;;;6250631;28;19963;-82
2023/12/20 08:47:51;;;;;;;;;;;;;;;;;;6245105;28;19913;-83
2023/12/20 08:50:52;;;;;;;;;;;;;;;;;;6248453;28;19917;-82
2023/12/20 08:53:52;;;;;;;;;;;;;;;;;;6247188;28;19913;-82
2023/12/20 08:56:52;;;;;;;;;;;;;;;;;;6248040;28;19933;-81
2023/12/20 08:59:52;;;;;;;;;;;;;;;;;;6249068;28;19921;-82
2023/12/20 09:02:52;;;;;;;;;;;;;;;;;;6246021;28;19921;-81
2023/12/20 09:05:53;;;;;;;;;;;;;;;;;;6249926;28;19975;-81
2023/12/20 09:08:53;;;;;;;;;;;;;;;;;;6248822;28;20024;-81
2023/12/20 09:11:53;;;;;;;;;;;;;;;;;;6248838;28;19914;-82
2023/12/20 09:14:53;;;;;;;;;;;;;;;;;;6253859;28;19919;-83
2023/12/20 09:17:54;;;;;;;;;;;;;;;;;;6249225;28;19921;-83
2023/12/20 09:20:54;;;;;;;;;;;;;;;;;;6252255;28;19912;-83
2023/12/20 09:23:54;;;;;;;;;;;;;;;;;;6251391;28;19921;-82
2023/12/20 09:26:54;;;;;;;;;;;;;;;;;;6250677;28;19913;-83
2023/12/20 09:29:54;;;;;;;;;;;;;;;;;;6251807;28;20411;-84
2023/12/20 09:32:55;;;;;;;;;;;;;;;;;;6255141;28;20312;-83
2023/12/20 09:35:55;;;;;;;;;;;;;;;;;;6248877;28;19984;-83
2023/12/20 09:38:55;;;;;;;;;;;;;;;;;;6250205;28;19913;-83
2023/12/20 09:41:55;;;;;;;;;;;;;;;;;;6250740;28;19925;-83
2023/12/20 09:44:55;;;;;;;;;;;;;;;;;;6248838;28;19966;-82
2023/12/20 09:47:55;;;;;;;;;;;;;;;;;;6248715;28;19928;-83
2023/12/20 09:50:55;;;;;;;;;;;;;;;;;;6254674;28;19925;-82
2023/12/20 09:53:56;;;;;;;;;;;;;;;;;;6251423;28;19921;-83
2023/12/20 09:56:57;;;;;;;;;;;;;;;;;;6254774;28;19998;-82
2023/12/20 09:59:57;;;;;;;;;;;;;;;;;;6255205;28;19913;-83
2023/12/20 10:02:57;;;;;;;;;;;;;;;;;;6259211;28;20058;-82
2023/12/20 10:05:58;;;;;;;;;;;;;;;;;;6255371;28;20362;-83
2023/12/20 10:08:58;;;;;;;;;;;;;;;;;;6255037;28;19913;-82
2023/12/20 10:11:58;;;;;;;;;;;;;;;;;;6257761;28;19994;-83
2023/12/20 10:14:59;;;;;;;;;;;;;;;;;;6261968;28;19958;-83
2023/12/20 10:17:59;;;;;;;;;;;;;;;;;;6258053;28;20020;-82
2023/12/20 10:21:00;;;;;;;;;;;;;;;;;;6251901;28;19935;-82
2023/12/20 10:24:00;;;;;;;;;;;;;;;;;;6254197;28;19913;-82
2023/12/20 10:27:00;;;;;;;;;;;;;;;;;;6253806;28;22822;-82
2023/12/20 10:30:00;;;;;;;;;;;;;;;;;;6253610;28;19955;-82
2023/12/20 10:33:00;;;;;;;;;;;;;;;;;;6252402;28;20285;-82
2023/12/20 10:36:00;;;;;;;;;;;;;;;;;;6254384;28;19999;-82
2023/12/20 10:39:01;;;;;;;;;;;;;;;;;;6253649;28;20007;-83
2023/12/20 10:42:02;;;;;;;;;;;;;;;;;;6253537;28;20329;-83
2023/12/20 10:45:02;;;;;;;;;;;;;;;;;;6252895;28;19928;-82
2023/12/20 10:48:03;;;;;;;;;;;;;;;;;;6254066;28;19921;-82
2023/12/20 10:51:03;;;;;;;;;;;;;;;;;;6252460;28;19920;-83
2023/12/20 10:54:03;;;;;;;;;;;;;;;;;;6256312;28;19917;-83
2023/12/20 10:57:04;;;;;;;;;;;;;;;;;;6257327;28;20539;-82
2023/12/20 11:00:04;;;;;;;;;;;;;;;;;;6252253;28;19943;-82
2023/12/20 11:03:04;;;;;;;;;;;;;;;;;;6248755;28;20290;-83
2023/12/20 11:06:04;;;;;;;;;;;;;;;;;;6248085;28;20305;-84
2023/12/20 11:09:10;;;;;;;;;;;;;;;;;;6252635;28;20365;-83
2023/12/20 11:12:10;;;;;;;;;;;;;;;;;;6253091;28;19960;-86
2023/12/20 11:15:10;;;;;;;;;;;;;;;;;;6254492;28;19932;-84
2023/12/20 11:18:10;;;;;;;;;;;;;;;;;;6251096;28;19929;-84
2023/12/20 11:21:11;;;;;;;;;;;;;;;;;;6251396;28;19924;-85
2023/12/20 11:24:11;;;;;;;;;;;;;;;;;;6255888;28;19913;-83
2023/12/20 11:27:11;;;;;;;;;;;;;;;;;;6249611;28;19917;-85
2023/12/20 11:30:11;;;;;;;;;;;;;;;;;;6250028;28;19914;-82
2023/12/20 11:33:11;;;;;;;;;;;;;;;;;;6251373;28;20010;-83
2023/12/20 11:36:11;;;;;;;;;;;;;;;;;;6249857;28;19936;-83
2023/12/20 11:39:13;;;;;;;;;;;;;;;;;;6252278;28;19913;-84
2023/12/20 11:42:14;;;;;;;;;;;;;;;;;;6254185;28;20325;-84
2023/12/20 11:45:15;;;;;;;;;;;;;;;;;;6256887;28;20312;-84
2023/12/20 11:48:15;;;;;;;;;;;;;;;;;;6253843;28;19943;-84
2023/12/20 11:51:15;;;;;;;;;;;;;;;;;;6249323;28;20358;-83
2023/12/20 11:54:16;;;;;;;;;;;;;;;;;;6260570;28;19932;-84
2023/12/20 11:57:16;;;;;;;;;;;;;;;;;;6253226;28;19935;-84
2023/12/20 12:00:16;;;;;;;;;;;;;;;;;;6255686;28;19913;-83
2023/12/20 12:03:16;;;;;;;;;;;;;;;;;;6251023;28;20377;-84
2023/12/20 12:06:16;;;;;;;;;;;;;;;;;;6250626;28;19936;-83
2023/12/20 12:09:16;;;;;;;;;;;;;;;;;;6254741;28;19921;-82
2023/12/20 12:12:17;;;;;;;;;;;;;;;;;;6251217;28;19912;-83
2023/12/20 12:15:17;;;;;;;;;;;;;;;;;;6246374;28;20012;-84
2023/12/20 12:18:18;;;;;;;;;;;;;;;;;;6251270;28;20432;-82
2023/12/20 12:21:18;;;;;;;;;;;;;;;;;;6257166;28;20016;-81
2023/12/20 12:24:18;;;;;;;;;;;;;;;;;;6248256;28;19989;-81
2023/12/20 12:27:18;;;;;;;;;;;;;;;;;;6250553;28;19928;-80
2023/12/20 12:30:18;;;;;;;;;;;;;;;;;;6248719;28;19917;-81
2023/12/20 12:33:18;;;;;;;;;;;;;;;;;;6255790;28;19917;-81
2023/12/20 12:36:18;;;;;;;;;;;;;;;;;;6248361;28;19975;-82
2023/12/20 12:39:18;;;;;;;;;;;;;;;;;;6250913;28;19917;-81
2023/12/20 12:42:19;;;;;;;;;;;;;;;;;;6246497;28;19913;-82
2023/12/20 12:45:19;;;;;;;;;;;;;;;;;;6253989;28;19912;-81
2023/12/20 12:48:19;;;;;;;;;;;;;;;;;;6247691;28;19913;-81
2023/12/20 12:51:19;;;;;;;;;;;;;;;;;;6253649;28;19913;-81
2023/12/20 12:54:19;;;;;;;;;;;;;;;;;;6245254;28;19921;-81
2023/12/20 12:57:19;;;;;;;;;;;;;;;;;;6249679;28;19928;-80
2023/12/20 13:00:19;;;;;;;;;;;;;;;;;;6259484;28;19917;-81
2023/12/20 13:03:20;;;;;;;;;;;;;;;;;;6245722;28;19917;-81
2023/12/20 13:06:20;;;;;;;;;;;;;;;;;;6258569;28;19913;-80
2023/12/20 13:09:20;;;;;;;;;;;;;;;;;;6249777;28;19984;-81
2023/12/20 13:12:21;;;;;;;;;;;;;;;;;;6252319;28;19939;-81
2023/12/20 13:15:21;;;;;;;;;;;;;;;;;;6253226;28;19967;-82
2023/12/20 13:18:21;;;;;;;;;;;;;;;;;;6253395;28;19920;-81
2023/12/20 13:21:21;;;;;;;;;;;;;;;;;;6250710;28;19913;-81
2023/12/20 13:24:21;;;;;;;;;;;;;;;;;;6250246;28;19927;-81
2023/12/20 13:27:22;;;;;;;;;;;;;;;;;;6247501;28;19921;-81
2023/12/20 13:30:22;;;;;;;;;;;;;;;;;;6249074;28;19921;-81
2023/12/20 13:33:22;;;;;;;;;;;;;;;;;;6248698;28;19928;-81
2023/12/20 13:36:22;;;;;;;;;;;;;;;;;;6247137;28;19925;-81
2023/12/20 13:39:22;;;;;;;;;;;;;;;;;;6250135;28;19971;-82
2023/12/20 13:42:23;;;;;;;;;;;;;;;;;;6253847;28;19974;-82
2023/12/20 13:45:23;;;;;;;;;;;;;;;;;;6248731;28;19917;-82
2023/12/20 13:48:23;;;;;;;;;;;;;;;;;;6249930;28;19964;-82
2023/12/20 13:51:23;;;;;;;;;;;;;;;;;;6249111;28;20448;-82
2023/12/20 13:54:23;;;;;;;;;;;;;;;;;;6245677;28;19939;-83
2023/12/20 13:57:24;;;;;;;;;;;;;;;;;;6246984;28;20370;-83
2023/12/20 14:00:24;;;;;;;;;;;;;;;;;;6247539;28;20269;-83
2023/12/20 14:03:24;;;;;;;;;;;;;;;;;;6246934;28;19917;-83
2023/12/20 14:06:24;;;;;;;;;;;;;;;;;;6250186;28;19919;-83
2023/12/20 14:09:24;;;;;;;;;;;;;;;;;;6260285;28;19917;-83
2023/12/20 14:12:24;;;;;;;;;;;;;;;;;;6244901;28;19919;-83
2023/12/20 14:15:25;;;;;;;;;;;;;;;;;;6247317;28;19921;-83
2023/12/20 14:18:25;;;;;;;;;;;;;;;;;;6249753;28;19928;-83
2023/12/20 14:21:25;;;;;;;;;;;;;;;;;;6248928;28;20273;-83
2023/12/20 14:24:25;;;;;;;;;;;;;;;;;;6246472;28;19912;-83
2023/12/20 14:27:27;;;;;;;;;;;;;;;;;;6250378;28;19944;-83
2023/12/20 14:30:27;;;;;;;;;;;;;;;;;;6248694;28;19920;-83
2023/12/20 14:33:28;;;;;;;;;;;;;;;;;;6251555;28;19913;-83
2023/12/20 14:36:29;;;;;;;;;;;;;;;;;;6251542;28;20285;-83
2023/12/20 14:39:30;;;;;;;;;;;;;;;;;;6251984;28;19917;-83
2023/12/20 14:42:32;;;;;;;;;;;;;;;;;;6250026;28;20565;-83
2023/12/20 14:45:32;;;;;;;;;;;;;;;;;;6252049;28;20729;-83
2023/12/20 14:48:33;;;;;;;;;;;;;;;;;;6253497;28;19917;-83
2023/12/20 14:51:33;;;;;;;;;;;;;;;;;;6258041;28;19960;-83
2023/12/20 14:54:33;;;;;;;;;;;;;;;;;;6250400;28;20443;-83
2023/12/20 14:57:33;;;;;;;;;;;;;;;;;;6249190;28;20399;-83
2023/12/20 15:00:33;;;;;;;;;;;;;;;;;;6248420;28;19948;-82
2023/12/20 15:03:34;;;;;;;;;;;;;;;;;;6248025;28;19979;-85
2023/12/20 15:06:34;;;;;;;;;;;;;;;;;;6260204;28;19913;-85
2023/12/20 15:09:34;;;;;;;;;;;;;;;;;;6252001;28;19919;-84
2023/12/20 15:12:34;;;;;;;;;;;;;;;;;;6258565;28;19940;-84
2023/12/20 15:15:34;;;;;;;;;;;;;;;;;;6256023;28;20392;-84
2023/12/20 15:18:35;;;;;;;;;;;;;;;;;;6249118;28;19933;-85
2023/12/20 15:21:40;;;;;;;;;;;;;;;;;;6252694;28;19939;-86
2023/12/20 15:24:42;;;;;;;;;;;;;;;;;;6252968;28;19920;-86
2023/12/20 15:27:42;;;;;;;;;;;;;;;;;;6257526;28;19921;-86
2023/12/20 15:30:42;;;;;;;;;;;;;;;;;;6251205;28;19921;-86
2023/12/20 15:33:42;;;;;;;;;;;;;;;;;;6254294;28;19918;-86
2023/12/20 15:36:43;;;;;;;;;;;;;;;;;;6249737;28;20063;-86
2023/12/20 15:39:43;;;;;;;;;;;;;;;;;;6251299;28;20415;-86
2023/12/20 15:42:43;;;;;;;;;;;;;;;;;;6253699;28;19924;-86
2023/12/20 15:45:45;;;;;;;;;;;;;;;;;;6249053;28;19917;-86
2023/12/20 15:48:46;;;;;;;;;;;;;;;;;;6254925;28;19913;-86
2023/12/20 15:51:46;;;;;;;;;;;;;;;;;;6256972;28;20339;-86
2023/12/20 15:54:47;;;;;;;;;;;;;;;;;;6260054;28;19917;-86
2023/12/20 15:57:47;;;;;;;;;;;;;;;;;;6259850;28;19925;-85
2023/12/20 16:00:48;;;;;;;;;;;;;;;;;;6251843;28;20354;-85
2023/12/20 16:03:49;;;;;;;;;;;;;;;;;;6252110;28;19939;-86
2023/12/20 16:06:49;;;;;;;;;;;;;;;;;;6251919;28;19939;-86
2023/12/20 16:09:49;;;;;;;;;;;;;;;;;;6252688;28;19921;-87
2023/12/20 16:12:49;;;;;;;;;;;;;;;;;;6253494;28;19932;-85
2023/12/20 16:15:49;;;;;;;;;;;;;;;;;;6252063;28;19929;-85
2023/12/20 16:18:50;;;;;;;;;;;;;;;;;;6248933;28;19917;-85
2023/12/20 16:21:50;;;;;;;;;;;;;;;;;;6247550;28;19958;-84
2023/12/20 16:24:50;;;;;;;;;;;;;;;;;;6250752;28;19913;-84
2023/12/20 16:27:50;;;;;;;;;;;;;;;;;;6248279;28;19913;-84
2023/12/20 16:30:51;;;;;;;;;;;;;;;;;;6253157;28;19913;-84
2023/12/20 16:33:51;;;;;;;;;;;;;;;;;;6247722;28;19924;-84
2023/12/20 16:36:51;;;;;;;;;;;;;;;;;;6255878;28;19921;-84
2023/12/20 16:39:51;;;;;;;;;;;;;;;;;;6246983;28;20282;-84
2023/12/20 16:42:56;;;;;;;;;;;;;;;;;;6250789;28;19920;-84
2023/12/20 16:45:56;;;;;;;;;;;;;;;;;;6247001;28;19924;-84
2023/12/20 16:48:56;;;;;;;;;;;;;;;;;;6252321;28;20250;-84
2023/12/20 16:51:56;;;;;;;;;;;;;;;;;;6249035;28;20007;-84
2023/12/20 16:54:56;;;;;;;;;;;;;;;;;;6247226;28;20061;-85
2023/12/20 16:57:56;;;;;;;;;;;;;;;;;;6244982;28;19921;-85
2023/12/20 17:00:56;;;;;;;;;;;;;;;;;;6248108;28;20270;-85
2023/12/20 17:03:57;;;;;;;;;;;;;;;;;;6246810;28;20281;-86
2023/12/20 17:06:57;;;;;;;;;;;;;;;;;;6255756;28;19928;-85
2023/12/20 17:09:57;;;;;;;;;;;;;;;;;;6255119;28;19912;-85
2023/12/20 17:12:57;;;;;;;;;;;;;;;;;;6249204;28;19913;-85
2023/12/20 17:15:57;;;;;;;;;;;;;;;;;;6250202;28;20308;-85
2023/12/20 17:18:57;;;;;;;;;;;;;;;;;;6254427;28;20269;-86
2023/12/20 17:21:57;;;;;;;;;;;;;;;;;;6252813;28;19913;-85
2023/12/20 17:24:58;;;;;;;;;;;;;;;;;;6249425;28;20022;-82
2023/12/20 17:27:58;;;;;;;;;;;;;;;;;;6247406;28;20030;-83
2023/12/20 17:30:59;;;;;;;;;;;;;;;;;;6251133;28;20337;-84
2023/12/20 17:33:59;;;;;;;;;;;;;;;;;;6247494;28;19913;-83
2023/12/20 17:37:00;;;;;;;;;;;;;;;;;;6246684;28;19921;-85
2023/12/20 17:40:00;;;;;;;;;;;;;;;;;;6250481;28;19917;-83
2023/12/20 17:43:00;;;;;;;;;;;;;;;;;;6249676;28;19920;-84
2023/12/20 17:46:00;;;;;;;;;;;;;;;;;;6255902;28;19909;-83
2023/12/20 17:49:01;;;;;;;;;;;;;;;;;;6252881;28;19920;-83
2023/12/20 17:52:02;;;;;;;;;;;;;;;;;;6247782;28;19917;-83
2023/12/20 17:55:03;;;;;;;;;;;;;;;;;;6251321;28;19948;-84
2023/12/20 17:58:03;;;;;;;;;;;;;;;;;;6244869;28;19935;-83
2023/12/20 18:01:03;;;;;;;;;;;;;;;;;;6249116;28;20408;-84
2023/12/20 18:04:04;;;;;;;;;;;;;;;;;;6246893;28;19917;-81
2023/12/20 18:07:04;;;;;;;;;;;;;;;;;;6255230;28;20364;-83
2023/12/20 18:10:04;;;;;;;;;;;;;;;;;;6253152;28;19913;-88
2023/12/20 18:13:04;;;;;;;;;;;;;;;;;;6251092;28;20012;-89
2023/12/20 18:16:09;;;;;;;;;;;;;;;;;;6256672;28;20012;-84
2023/12/20 18:19:09;;;;;;;;;;;;;;;;;;6260517;28;19913;-85
2023/12/20 18:22:09;;;;;;;;;;;;;;;;;;6253040;28;19924;-85
2023/12/20 18:25:09;;;;;;;;;;;;;;;;;;6263470;28;19913;-83
2023/12/20 18:28:10;;;;;;;;;;;;;;;;;;6264564;28;20349;-86
2023/12/20 18:31:10;;;;;;;;;;;;;;;;;;6251200;28;19967;-85
2023/12/20 18:34:10;;;;;;;;;;;;;;;;;;6260688;28;19920;-89
2023/12/20 18:37:10;;;;;;;;;;;;;;;;;;6255122;28;19932;-88
2023/12/20 18:40:11;;;;;;;;;;;;;;;;;;6261163;28;20008;-87
2023/12/20 18:43:11;;;;;;;;;;;;;;;;;;6255217;28;19917;-90
2023/12/20 18:46:11;;;;;;;;;;;;;;;;;;6256953;28;20072;-90
2023/12/20 18:49:11;;;;;;;;;;;;;;;;;;6257927;28;19971;-89
2023/12/20 18:52:11;;;;;;;;;;;;;;;;;;6256342;28;19967;-88
2023/12/20 18:55:11;;;;;;;;;;;;;;;;;;6253610;28;19913;-88
2023/12/20 18:58:13;;;;;;;;;;;;;;;;;;6250873;28;19940;-88
2023/12/20 19:01:13;;;;;;;;;;;;;;;;;;6244990;28;20309;-88
2023/12/20 19:04:14;;;;;;;;;;;;;;;;;;6230519;28;19932;-89
2023/12/20 19:07:14;;;;;;;;;;;;;;;;;;5886525;28;10000109;-89
2023/12/20 19:10:14;;;;;;;;;;;;;;;;;;6226142;28;19921;-89
2023/12/20 19:13:14;;;;;;;;;;;;;;;;;;6229223;28;19933;-89
2023/12/20 19:16:14;;;;;;;;;;;;;;;;;;6231830;28;20020;-89
2023/12/20 19:19:14;;;;;;;;;;;;;;;;;;6217875;28;20043;-89
2023/12/20 19:22:15;;;;;;;;;;;;;;;;;;6234188;28;19924;-90
2023/12/20 19:25:15;;;;;;;;;;;;;;;;;;6230394;28;19920;-89
2023/12/20 19:28:15;;;;;;;;;;;;;;;;;;6224644;28;19913;-90
2023/12/20 19:31:15;;;;;;;;;;;;;;;;;;6226567;28;19921;-89
2023/12/20 19:34:16;;;;;;;;;;;;;;;;;;6213330;28;20008;-89
2023/12/20 19:37:17;;;;;;;;;;;;;;;;;;6228070;28;20412;-89
2023/12/20 19:40:20;;;;;;;;;;;;;;;;;;6224790;28;19922;-88
2023/12/20 19:43:20;;;;;;;;;;;;;;;;;;6210344;28;19940;-90
2023/12/20 19:46:20;;;;;;;;;;;;;;;;;;6231383;28;19914;-89
2023/12/20 19:49:20;;;;;;;;;;;;;;;;;;6232274;28;19928;-89
2023/12/20 19:52:21;;;;;;;;;;;;;;;;;;6217658;28;19918;-89
2023/12/20 19:55:21;;;;;;;;;;;;;;;;;;6231333;28;20366;-89
2023/12/20 19:58:21;;;;;;;;;;;;;;;;;;6213770;28;19928;-89
2023/12/20 20:01:21;;;;;;;;;;;;;;;;;;6222724;28;20385;-90
2023/12/20 20:04:23;;;;;;;;;;;;;;;;;;6226592;28;20431;-89
2023/12/20 20:07:25;;;;;;;;;;;;;;;;;;6217136;28;19921;-90
2023/12/20 20:10:25;;;;;;;;;;;;;;;;;;6215016;28;19960;-90
2023/12/20 20:13:25;;;;;;;;;;;;;;;;;;6214448;28;19922;-89
2023/12/20 20:16:25;;;;;;;;;;;;;;;;;;6212711;28;20024;-90
2023/12/20 20:19:25;;;;;;;;;;;;;;;;;;6233013;28;20012;-89
2023/12/20 20:22:26;;;;;;;;;;;;;;;;;;6231672;28;19955;-89
2023/12/20 20:25:26;;;;;;;;;;;;;;;;;;6215703;28;19914;-89
2023/12/20 20:28:28;;;;;;;;;;;;;;;;;;6212156;28;20445;-89